Time,TemperatureF,DewpointF,PressureIn,WindDirection,WindDirectionDegrees,WindSpeedMPH,WindSpeedGustMPH,Humidity,HourlyPrecipIn,Conditions,Clouds,dailyrainin,SoftwareType,DateUTC
2013-10-28 00:02:00,57.6,52.7,30.13,North,0,0.0,0.0,85,0.00,,,0.00,WUHU21623XXSP,2013-10-28 05:02:00,
2013-10-28 00:11:00,57.6,53.1,30.13,North,0,0.0,0.0,85,0.00,,,0.00,WUHU21623XXSP,2013-10-28 05:11:00,
2013-10-28 00:16:00,57.0,52.7,30.13,North,0,0.0,0.0,85,0.00,,,0.00,WUHU21623XXSP,2013-10-28 05:16:00,
2013-10-28 00:21:00,57.0,52.5,30.13,North,0,0.0,0.0,85,0.00,,,0.00,WUHU21623XXSP,2013-10-28 05:21:00,
2013-10-28 00:26:00,57.0,52.5,30.13,North,0,0.0,0.0,85,0.00,,,0.00,WUHU21623XXSP,2013-10-28 05:26:00,
2013-10-28 00:31:00,56.8,52.3,30.12,North,0,0.0,0.0,85,0.00,,,0.00,WUHU21623XXSP,2013-10-28 05:31:00,
2013-10-28 00:36:00,56.7,52.2,30.12,North,0,0.0,0.0,85,0.00,,,0.00,WUHU21623XXSP,2013-10-28 05:36:00,
2013-10-28 00:41:00,56.5,52.0,30.12,North,0,0.0,0.0,85,0.00,,,0.00,WUHU21623XXSP,2013-10-28 05:41:00,
2013-10-28 00:46:00,56.5,52.0,30.12,North,0,0.0,0.0,85,0.00,,,0.00,WUHU21623XXSP,2013-10-28 05:46:00,
2013-10-28 00:51:00,56.3,51.8,30.12,North,0,0.0,0.0,85,0.00,,,0.00,WUHU21623XXSP,2013-10-28 05:51:00,
2013-10-28 00:56:00,56.1,51.6,30.12,North,0,0.0,0.0,85,0.00,,,0.00,WUHU21623XXSP,2013-10-28 05:56:00,
2013-10-28 01:01:00,56.1,51.9,30.12,North,0,0.0,0.0,86,0.00,,,0.00,WUHU21623XXSP,2013-10-28 06:01:00,
2013-10-28 01:07:00,56.1,51.9,30.12,North,0,0.0,0.0,86,0.00,,,0.00,WUHU21623XXSP,2013-10-28 06:07:00,
2013-10-28 01:13:00,55.8,51.6,30.12,North,0,0.0,0.0,86,0.00,,,0.00,WUHU21623XXSP,2013-10-28 06:13:00,
2013-10-28 01:18:00,55.8,51.6,30.12,North,0,0.0,0.0,86,0.00,,,0.00,WUHU21623XXSP,2013-10-28 06:18:00,
2013-10-28 01:23:00,55.6,51.4,30.12,North,0,0.0,0.0,86,0.00,,,0.00,WUHU21623XXSP,2013-10-28 06:23:00,
2013-10-28 01:28:00,55.6,51.4,30.12,North,0,0.0,0.0,86,0.00,,,0.00,WUHU21623XXSP,2013-10-28 06:28:00,
2013-10-28 01:33:00,55.6,51.4,30.12,North,0,0.0,0.0,86,0.00,,,0.00,WUHU21623XXSP,2013-10-28 06:33:00,
2013-10-28 01:38:00,55.6,51.4,30.12,North,0,0.0,0.0,86,0.00,,,0.00,WUHU21623XXSP,2013-10-28 06:38:00,
2013-10-28 01:43:00,55.6,51.4,30.11,North,0,0.0,0.0,86,0.00,,,0.00,WUHU21623XXSP,2013-10-28 06:43:00,
2013-10-28 01:48:00,55.6,51.4,30.12,North,0,0.0,0.0,86,0.00,,,0.00,WUHU21623XXSP,2013-10-28 06:48:00,
2013-10-28 01:53:00,55.4,51.5,30.12,North,0,0.0,0.0,87,0.00,,,0.00,WUHU21623XXSP,2013-10-28 06:53:00,
2013-10-28 01:58:00,55.6,51.7,30.12,North,0,0.0,0.0,87,0.00,,,0.00,WUHU21623XXSP,2013-10-28 06:58:00,
2013-10-28 02:03:00,55.4,51.5,30.12,North,0,0.0,0.0,87,0.00,,,0.00,WUHU21623XXSP,2013-10-28 07:03:00,
2013-10-28 02:08:00,55.4,51.5,30.12,North,0,0.0,0.0,87,0.00,,,0.00,WUHU21623XXSP,2013-10-28 07:08:00,
2013-10-28 02:13:00,55.4,51.5,30.12,North,0,0.0,0.0,87,0.00,,,0.00,WUHU21623XXSP,2013-10-28 07:13:00,
2013-10-28 02:18:00,55.2,51.4,30.12,North,0,0.0,0.0,87,0.00,,,0.00,WUHU21623XXSP,2013-10-28 07:18:00,
2013-10-28 02:23:00,55.2,51.4,30.12,North,0,0.0,0.0,87,0.00,,,0.00,WUHU21623XXSP,2013-10-28 07:23:00,
2013-10-28 02:28:00,55.2,51.4,30.12,North,0,0.0,0.0,87,0.00,,,0.00,WUHU21623XXSP,2013-10-28 07:28:00,
2013-10-28 02:33:00,55.2,51.4,30.12,North,0,0.0,0.0,87,0.00,,,0.00,WUHU21623XXSP,2013-10-28 07:33:00,
2013-10-28 02:38:00,55.0,51.2,30.11,North,0,0.0,0.0,87,0.00,,,0.00,WUHU21623XXSP,2013-10-28 07:38:00,
2013-10-28 02:43:00,55.0,51.2,30.11,North,0,0.0,0.0,87,0.00,,,0.00,WUHU21623XXSP,2013-10-28 07:43:00,
2013-10-28 02:48:00,55.0,51.2,30.11,North,0,0.0,0.0,87,0.00,,,0.00,WUHU21623XXSP,2013-10-28 07:48:00,
2013-10-28 02:53:00,54.9,51.0,30.11,North,0,0.0,0.0,87,0.00,,,0.00,WUHU21623XXSP,2013-10-28 07:53:00,
2013-10-28 02:58:00,54.7,50.8,30.11,North,0,0.0,0.0,87,0.00,,,0.00,WUHU21623XXSP,2013-10-28 07:58:00,
2013-10-28 03:03:00,54.7,50.8,30.11,North,0,0.0,0.0,87,0.00,,,0.00,WUHU21623XXSP,2013-10-28 08:03:00,
2013-10-28 03:08:00,54.5,50.7,30.11,North,0,0.0,0.0,87,0.00,,,0.00,WUHU21623XXSP,2013-10-28 08:08:00,
2013-10-28 03:13:00,54.5,50.7,30.11,North,0,0.0,0.0,87,0.00,,,0.00,WUHU21623XXSP,2013-10-28 08:13:00,
2013-10-28 03:18:00,54.5,50.7,30.11,North,0,0.0,0.0,87,0.00,,,0.00,WUHU21623XXSP,2013-10-28 08:18:00,
2013-10-28 03:23:00,54.3,50.5,30.11,North,0,0.0,0.0,87,0.00,,,0.00,WUHU21623XXSP,2013-10-28 08:23:00,
2013-10-28 03:28:00,54.3,50.5,30.11,North,0,0.0,0.0,87,0.00,,,0.00,WUHU21623XXSP,2013-10-28 08:28:00,
2013-10-28 03:33:00,54.1,50.6,30.11,North,0,0.0,0.0,88,0.00,,,0.00,WUHU21623XXSP,2013-10-28 08:33:00,
2013-10-28 03:38:00,54.1,50.6,30.11,North,0,0.0,0.0,88,0.00,,,0.00,WUHU21623XXSP,2013-10-28 08:38:00,
2013-10-28 03:43:00,54.1,50.6,30.11,North,0,0.0,0.0,88,0.00,,,0.00,WUHU21623XXSP,2013-10-28 08:43:00,
2013-10-28 03:48:00,54.0,50.5,30.11,North,0,0.0,0.0,88,0.00,,,0.00,WUHU21623XXSP,2013-10-28 08:48:00,
2013-10-28 03:53:00,54.0,50.5,30.11,North,0,0.0,0.0,88,0.00,,,0.00,WUHU21623XXSP,2013-10-28 08:53:00,
2013-10-28 03:58:00,53.8,50.3,30.11,North,0,0.0,0.0,88,0.00,,,0.00,WUHU21623XXSP,2013-10-28 08:58:00,
2013-10-28 04:03:00,53.8,50.3,30.11,North,0,0.0,0.0,88,0.00,,,0.00,WUHU21623XXSP,2013-10-28 09:03:00,
2013-10-28 04:08:00,53.8,50.3,30.11,North,0,0.0,0.0,88,0.00,,,0.00,WUHU21623XXSP,2013-10-28 09:08:00,
2013-10-28 04:13:00,53.4,49.9,30.11,North,0,0.0,0.0,88,0.00,,,0.00,WUHU21623XXSP,2013-10-28 09:13:00,
2013-10-28 04:18:00,53.4,49.9,30.11,North,0,0.0,0.0,88,0.00,,,0.00,WUHU21623XXSP,2013-10-28 09:18:00,
2013-10-28 04:23:00,53.4,49.9,30.11,North,0,0.0,0.0,88,0.00,,,0.00,WUHU21623XXSP,2013-10-28 09:23:00,
2013-10-28 04:28:00,53.4,49.9,30.11,North,0,0.0,0.0,88,0.00,,,0.00,WUHU21623XXSP,2013-10-28 09:28:00,
2013-10-28 04:33:00,53.4,49.9,30.12,North,0,0.0,0.0,88,0.00,,,0.00,WUHU21623XXSP,2013-10-28 09:33:00,
2013-10-28 04:38:00,53.2,49.7,30.12,North,0,0.0,0.0,88,0.00,,,0.00,WUHU21623XXSP,2013-10-28 09:38:00,
2013-10-28 04:43:00,53.2,49.7,30.12,North,0,0.0,0.0,88,0.00,,,0.00,WUHU21623XXSP,2013-10-28 09:43:00,
2013-10-28 04:48:00,53.2,49.7,30.12,North,0,0.0,0.0,88,0.00,,,0.00,WUHU21623XXSP,2013-10-28 09:48:00,
2013-10-28 04:53:00,53.2,49.7,30.12,North,0,0.0,0.0,88,0.00,,,0.00,WUHU21623XXSP,2013-10-28 09:53:00,
2013-10-28 04:58:00,53.2,49.7,30.12,North,0,0.0,0.0,88,0.00,,,0.00,WUHU21623XXSP,2013-10-28 09:58:00,
2013-10-28 05:03:00,53.4,50.2,30.12,North,0,0.0,0.0,89,0.00,,,0.00,WUHU21623XXSP,2013-10-28 10:03:00,
2013-10-28 05:08:00,53.4,50.2,30.12,North,0,0.0,0.0,89,0.00,,,0.00,WUHU21623XXSP,2013-10-28 10:08:00,
2013-10-28 05:13:00,53.4,50.2,30.12,North,0,0.0,0.0,89,0.00,,,0.00,WUHU21623XXSP,2013-10-28 10:13:00,
2013-10-28 05:18:00,53.4,50.2,30.13,North,0,0.0,0.0,89,0.00,,,0.00,WUHU21623XXSP,2013-10-28 10:18:00,
2013-10-28 05:23:00,53.8,50.6,30.13,North,0,0.0,0.0,89,0.00,,,0.00,WUHU21623XXSP,2013-10-28 10:23:00,
2013-10-28 05:28:00,53.8,50.6,30.13,North,0,0.0,0.0,89,0.00,,,0.00,WUHU21623XXSP,2013-10-28 10:28:00,
2013-10-28 05:33:00,53.8,50.6,30.13,North,0,0.0,0.0,89,0.00,,,0.00,WUHU21623XXSP,2013-10-28 10:33:00,
2013-10-28 05:38:00,53.8,50.6,30.13,North,0,0.0,0.0,89,0.00,,,0.00,WUHU21623XXSP,2013-10-28 10:38:00,
2013-10-28 05:43:00,54.0,50.8,30.14,North,0,0.0,0.0,89,0.00,,,0.00,WUHU21623XXSP,2013-10-28 10:43:00,
2013-10-28 05:48:00,54.0,50.8,30.13,North,0,0.0,0.0,89,0.00,,,0.00,WUHU21623XXSP,2013-10-28 10:48:00,
2013-10-28 05:53:00,54.0,50.8,30.14,North,0,0.0,0.0,89,0.00,,,0.00,WUHU21623XXSP,2013-10-28 10:53:00,
2013-10-28 05:58:00,53.8,50.6,30.14,North,0,0.0,0.0,89,0.00,,,0.00,WUHU21623XXSP,2013-10-28 10:58:00,
2013-10-28 06:03:00,53.8,50.6,30.14,North,0,0.0,0.0,89,0.00,,,0.00,WUHU21623XXSP,2013-10-28 11:03:00,
2013-10-28 06:08:00,53.8,50.6,30.14,North,0,0.0,0.0,89,0.00,,,0.00,WUHU21623XXSP,2013-10-28 11:08:00,
2013-10-28 06:13:00,53.8,50.6,30.15,North,0,0.0,0.0,89,0.00,,,0.00,WUHU21623XXSP,2013-10-28 11:13:00,
2013-10-28 06:18:00,53.8,50.6,30.15,North,0,0.0,0.0,89,0.00,,,0.00,WUHU21623XXSP,2013-10-28 11:18:00,
2013-10-28 06:23:00,53.4,50.2,30.15,North,0,0.0,0.0,89,0.00,,,0.00,WUHU21623XXSP,2013-10-28 11:23:00,
2013-10-28 06:28:00,53.4,50.2,30.15,North,0,0.0,0.0,89,0.00,,,0.00,WUHU21623XXSP,2013-10-28 11:28:00,
2013-10-28 06:33:00,53.4,50.2,30.15,North,0,0.0,0.0,89,0.00,,,0.00,WUHU21623XXSP,2013-10-28 11:33:00,
2013-10-28 06:38:00,53.8,50.6,30.15,North,0,0.0,0.0,89,0.00,,,0.00,WUHU21623XXSP,2013-10-28 11:38:00,
2013-10-28 06:43:00,53.8,50.6,30.15,North,0,0.0,0.0,89,0.00,,,0.00,WUHU21623XXSP,2013-10-28 11:43:00,
2013-10-28 06:48:00,53.8,50.9,30.16,North,0,0.0,0.0,90,0.00,,,0.00,WUHU21623XXSP,2013-10-28 11:48:00,
2013-10-28 06:53:00,53.8,50.9,30.16,North,0,0.0,0.0,90,0.00,,,0.00,WUHU21623XXSP,2013-10-28 11:53:00,
2013-10-28 06:58:00,53.8,50.9,30.16,North,0,0.0,0.0,90,0.00,,,0.00,WUHU21623XXSP,2013-10-28 11:58:00,
2013-10-28 07:03:00,53.8,50.9,30.16,North,0,0.0,0.0,90,0.00,,,0.00,WUHU21623XXSP,2013-10-28 12:03:00,
2013-10-28 07:08:00,53.6,50.9,30.16,North,0,0.0,0.0,90,0.00,,,0.00,WUHU21623XXSP,2013-10-28 12:08:00,
2013-10-28 07:13:00,53.6,50.7,30.16,North,0,0.0,0.0,90,0.00,,,0.00,WUHU21623XXSP,2013-10-28 12:13:00,
2013-10-28 07:18:00,53.4,50.5,30.16,North,0,0.0,0.0,90,0.00,,,0.00,WUHU21623XXSP,2013-10-28 12:18:00,
2013-10-28 07:23:00,53.4,50.5,30.16,North,0,0.0,0.0,90,0.00,,,0.00,WUHU21623XXSP,2013-10-28 12:23:00,
2013-10-28 07:28:00,53.4,50.5,30.16,North,0,0.0,0.0,90,0.00,,,0.00,WUHU21623XXSP,2013-10-28 12:28:00,
2013-10-28 07:33:00,53.4,50.5,30.16,North,0,0.0,0.0,90,0.00,,,0.00,WUHU21623XXSP,2013-10-28 12:33:00,
2013-10-28 07:38:00,53.2,50.4,30.17,North,0,0.0,0.0,90,0.00,,,0.00,WUHU21623XXSP,2013-10-28 12:38:00,
2013-10-28 07:43:00,53.2,50.4,30.17,North,0,0.0,0.0,90,0.00,,,0.00,WUHU21623XXSP,2013-10-28 12:43:00,
2013-10-28 07:48:00,53.2,50.4,30.17,North,0,0.0,0.0,90,0.00,,,0.00,WUHU21623XXSP,2013-10-28 12:48:00,
2013-10-28 07:53:00,53.2,50.4,30.18,North,0,0.0,0.0,90,0.00,,,0.00,WUHU21623XXSP,2013-10-28 12:53:00,
2013-10-28 07:58:00,53.2,50.4,30.17,North,0,0.0,0.0,90,0.00,,,0.00,WUHU21623XXSP,2013-10-28 12:58:00,
2013-10-28 08:03:00,53.2,50.4,30.18,North,0,0.0,0.0,90,0.00,,,0.00,WUHU21623XXSP,2013-10-28 13:03:00,
2013-10-28 08:08:00,53.4,50.5,30.18,North,0,0.0,0.0,90,0.00,,,0.00,WUHU21623XXSP,2013-10-28 13:08:00,
2013-10-28 08:13:00,53.4,50.5,30.18,North,0,0.0,0.0,90,0.00,,,0.00,WUHU21623XXSP,2013-10-28 13:13:00,
2013-10-28 08:18:00,53.8,50.9,30.19,North,0,0.0,0.0,90,0.00,,,0.00,WUHU21623XXSP,2013-10-28 13:18:00,
2013-10-28 08:23:00,54.1,51.1,30.19,North,0,0.0,0.0,90,0.00,,,0.00,WUHU21623XXSP,2013-10-28 13:23:00,
2013-10-28 08:28:00,54.3,51.3,30.19,North,0,0.0,0.0,90,0.00,,,0.00,WUHU21623XXSP,2013-10-28 13:28:00,
2013-10-28 08:33:00,54.7,52.1,30.19,North,0,0.0,0.0,91,0.00,,,0.00,WUHU21623XXSP,2013-10-28 13:33:00,
2013-10-28 08:38:00,55.2,52.6,30.20,North,0,0.0,0.0,91,0.00,,,0.00,WUHU21623XXSP,2013-10-28 13:38:00,
2013-10-28 08:43:00,55.4,52.8,30.20,North,0,0.0,0.0,91,0.00,,,0.00,WUHU21623XXSP,2013-10-28 13:43:00,
2013-10-28 08:48:00,55.8,53.2,30.20,North,0,0.0,0.0,91,0.00,,,0.00,WUHU21623XXSP,2013-10-28 13:48:00,
2013-10-28 08:53:00,56.5,53.9,30.20,North,0,0.0,0.0,91,0.00,,,0.00,WUHU21623XXSP,2013-10-28 13:53:00,
2013-10-28 08:58:00,57.0,54.4,30.20,North,0,0.0,0.0,91,0.00,,,0.00,WUHU21623XXSP,2013-10-28 13:58:00,
2013-10-28 09:03:00,57.9,55.6,30.21,North,0,0.0,0.0,92,0.00,,,0.00,WUHU21623XXSP,2013-10-28 14:03:00,
2013-10-28 09:08:00,58.8,56.5,30.21,North,0,0.0,0.0,92,0.00,,,0.00,WUHU21623XXSP,2013-10-28 14:08:00,
2013-10-28 09:13:00,59.4,57.1,30.21,North,0,0.0,0.0,92,0.00,,,0.00,WUHU21623XXSP,2013-10-28 14:13:00,
2013-10-28 09:18:00,59.9,57.9,30.21,North,0,0.0,0.0,93,0.00,,,0.00,WUHU21623XXSP,2013-10-28 14:18:00,
2013-10-28 09:23:00,60.6,58.6,30.21,North,0,0.0,0.0,93,0.00,,,0.00,WUHU21623XXSP,2013-10-28 14:23:00,
2013-10-28 09:28:00,61.0,59.0,30.21,North,0,0.0,0.0,93,0.00,,,0.00,WUHU21623XXSP,2013-10-28 14:28:00,
2013-10-28 09:33:00,61.5,59.5,30.22,North,0,0.0,0.0,93,0.00,,,0.00,WUHU21623XXSP,2013-10-28 14:33:00,
2013-10-28 09:38:00,62.4,60.4,30.22,North,0,0.0,0.0,93,0.00,,,0.00,WUHU21623XXSP,2013-10-28 14:38:00,
2013-10-28 09:43:00,63.1,61.1,30.22,North,0,0.0,0.0,93,0.00,,,0.00,WUHU21623XXSP,2013-10-28 14:43:00,
2013-10-28 09:48:00,63.7,61.4,30.22,North,0,0.0,0.0,92,0.00,,,0.00,WUHU21623XXSP,2013-10-28 14:48:00,
2013-10-28 09:53:00,64.6,62.0,30.22,North,0,0.0,0.0,91,0.00,,,0.00,WUHU21623XXSP,2013-10-28 14:53:00,
2013-10-28 09:58:00,64.9,62.3,30.22,North,0,0.0,0.0,91,0.00,,,0.00,WUHU21623XXSP,2013-10-28 14:58:00,
2013-10-28 10:03:00,65.3,62.3,30.22,North,0,0.0,0.0,90,0.00,,,0.00,WUHU21623XXSP,2013-10-28 15:03:00,
2013-10-28 10:08:00,66.0,63.0,30.22,North,0,0.0,0.0,90,0.00,,,0.00,WUHU21623XXSP,2013-10-28 15:08:00,
2013-10-28 10:13:00,66.4,63.0,30.22,North,0,0.0,0.0,89,0.00,,,0.00,WUHU21623XXSP,2013-10-28 15:13:00,
2013-10-28 10:18:00,66.7,63.0,30.22,North,0,0.0,0.0,88,0.00,,,0.00,WUHU21623XXSP,2013-10-28 15:18:00,
2013-10-28 10:23:00,67.5,63.4,30.22,North,0,0.0,0.0,87,0.00,,,0.00,WUHU21623XXSP,2013-10-28 15:23:00,
2013-10-28 10:28:00,67.8,63.5,30.22,North,0,0.0,0.0,86,0.00,,,0.00,WUHU21623XXSP,2013-10-28 15:28:00,
2013-10-28 10:33:00,68.4,64.0,30.22,North,0,0.0,0.0,86,0.00,,,0.00,WUHU21623XXSP,2013-10-28 15:33:00,
2013-10-28 10:38:00,69.1,63.7,30.22,North,0,0.0,0.0,83,0.00,,,0.00,WUHU21623XXSP,2013-10-28 15:38:00,
2013-10-28 10:43:00,69.8,64.0,30.22,North,0,0.0,0.0,82,0.00,,,0.00,WUHU21623XXSP,2013-10-28 15:43:00,
2013-10-28 10:48:00,70.3,63.9,30.22,North,0,0.0,0.0,80,0.00,,,0.00,WUHU21623XXSP,2013-10-28 15:48:00,
2013-10-28 10:53:00,70.7,64.2,30.22,North,0,0.0,0.0,80,0.00,,,0.00,WUHU21623XXSP,2013-10-28 15:53:00,
2013-10-28 10:58:00,71.2,64.4,30.22,North,0,0.0,0.0,79,0.00,,,0.00,WUHU21623XXSP,2013-10-28 15:58:00,
2013-10-28 11:03:00,71.4,64.6,30.22,North,0,0.0,0.0,79,0.00,,,0.00,WUHU21623XXSP,2013-10-28 16:03:00,
2013-10-28 11:08:00,71.8,64.5,30.22,North,0,0.0,0.0,78,0.00,,,0.00,WUHU21623XXSP,2013-10-28 16:08:00,
2013-10-28 11:13:00,72.0,64.3,30.22,North,0,0.0,0.0,77,0.00,,,0.00,WUHU21623XXSP,2013-10-28 16:13:00,
2013-10-28 11:18:00,72.1,64.5,30.22,North,0,0.0,0.0,77,0.00,,,0.00,WUHU21623XXSP,2013-10-28 16:18:00,
2013-10-28 11:23:00,72.5,64.9,30.22,North,0,0.0,0.0,77,0.00,,,0.00,WUHU21623XXSP,2013-10-28 16:23:00,
2013-10-28 11:28:00,73.0,64.3,30.22,North,0,0.0,0.0,74,0.00,,,0.00,WUHU21623XXSP,2013-10-28 16:28:00,
2013-10-28 11:33:00,73.2,64.3,30.21,North,0,0.0,0.0,75,0.00,,,0.00,WUHU21623XXSP,2013-10-28 16:33:00,
2013-10-28 11:38:00,73.6,64.8,30.21,North,0,0.0,0.0,74,0.00,,,0.00,WUHU21623XXSP,2013-10-28 16:38:00,
2013-10-28 11:43:00,73.8,64.6,30.21,North,0,0.0,0.0,73,0.00,,,0.00,WUHU21623XXSP,2013-10-28 16:43:00,
2013-10-28 11:48:00,73.9,64.4,30.21,North,0,0.0,0.0,72,0.00,,,0.00,WUHU21623XXSP,2013-10-28 16:48:00,
2013-10-28 11:53:00,74.5,65.7,30.21,North,0,0.0,0.0,74,0.00,,,0.00,WUHU21623XXSP,2013-10-28 16:53:00,
2013-10-28 12:05:00,74.5,65.3,30.21,North,0,0.0,0.0,73,0.00,,,0.00,WUHU21623XXSP,2013-10-28 17:05:00,
2013-10-28 12:10:00,75.6,65.9,30.21,North,0,0.0,0.0,72,0.00,,,0.00,WUHU21623XXSP,2013-10-28 17:10:00,
2013-10-28 12:15:00,75.6,65.9,30.21,North,0,0.0,0.0,72,0.00,,,0.00,WUHU21623XXSP,2013-10-28 17:15:00,
2013-10-28 12:20:00,75.6,65.9,30.20,North,0,0.0,0.0,72,0.00,,,0.00,WUHU21623XXSP,2013-10-28 17:20:00,
2013-10-28 12:25:00,75.7,65.7,30.20,North,0,0.0,0.0,71,0.00,,,0.00,WUHU21623XXSP,2013-10-28 17:25:00,
2013-10-28 12:30:00,75.9,65.9,30.20,North,0,0.0,0.0,71,0.00,,,0.00,WUHU21623XXSP,2013-10-28 17:30:00,
2013-10-28 12:35:00,76.1,65.9,30.19,North,0,0.0,0.0,71,0.00,,,0.00,WUHU21623XXSP,2013-10-28 17:35:00,
2013-10-28 12:40:00,76.8,65.5,30.19,North,0,0.0,0.0,68,0.00,,,0.00,WUHU21623XXSP,2013-10-28 17:40:00,
2013-10-28 12:45:00,77.0,66.1,30.19,North,0,0.0,0.0,69,0.00,,,0.00,WUHU21623XXSP,2013-10-28 17:45:00,
2013-10-28 12:50:00,77.5,65.7,30.19,North,0,0.0,0.0,67,0.00,,,0.00,WUHU21623XXSP,2013-10-28 17:50:00,
2013-10-28 12:55:00,77.9,66.0,30.19,North,0,0.0,0.0,67,0.00,,,0.00,WUHU21623XXSP,2013-10-28 17:55:00,
2013-10-28 13:00:00,78.1,65.8,30.18,North,0,0.0,0.0,66,0.00,,,0.00,WUHU21623XXSP,2013-10-28 18:00:00,
2013-10-28 13:05:00,78.1,65.8,30.18,North,0,0.0,0.0,66,0.00,,,0.00,WUHU21623XXSP,2013-10-28 18:05:00,
2013-10-28 13:10:00,78.1,65.3,30.18,North,0,0.0,0.0,65,0.00,,,0.00,WUHU21623XXSP,2013-10-28 18:10:00,
2013-10-28 13:15:00,77.7,65.2,30.18,North,0,0.0,0.0,65,0.00,,,0.00,WUHU21623XXSP,2013-10-28 18:15:00,
2013-10-28 13:20:00,77.5,64.8,30.18,North,0,0.0,0.0,66,0.00,,,0.00,WUHU21623XXSP,2013-10-28 18:20:00,
2013-10-28 13:25:00,77.5,65.7,30.18,North,0,0.0,0.0,67,0.00,,,0.00,WUHU21623XXSP,2013-10-28 18:25:00,
2013-10-28 13:30:00,77.9,65.6,30.17,North,0,0.0,0.0,66,0.00,,,0.00,WUHU21623XXSP,2013-10-28 18:30:00,
2013-10-28 13:35:00,78.4,65.8,30.17,North,0,0.0,0.0,66,0.00,,,0.00,WUHU21623XXSP,2013-10-28 18:35:00,
2013-10-28 13:40:00,79.0,65.8,30.16,North,0,0.0,0.0,65,0.00,,,0.00,WUHU21623XXSP,2013-10-28 18:40:00,
2013-10-28 13:45:00,79.3,66.5,30.17,North,0,0.0,0.0,65,0.00,,,0.00,WUHU21623XXSP,2013-10-28 18:45:00,
2013-10-28 13:50:00,79.7,66.7,30.17,North,0,0.0,0.0,64,0.00,,,0.00,WUHU21623XXSP,2013-10-28 18:50:00,
2013-10-28 13:55:00,80.4,67.1,30.17,North,0,0.0,0.0,64,0.00,,,0.00,WUHU21623XXSP,2013-10-28 18:55:00,
2013-10-28 14:00:00,80.6,66.7,30.16,North,0,0.0,0.0,63,0.00,,,0.00,WUHU21623XXSP,2013-10-28 19:00:00,
2013-10-28 14:05:00,80.8,66.5,30.16,North,0,0.0,0.0,62,0.00,,,0.00,WUHU21623XXSP,2013-10-28 19:05:00,
2013-10-28 14:10:00,80.6,65.9,30.16,North,0,0.0,0.0,61,0.00,,,0.00,WUHU21623XXSP,2013-10-28 19:10:00,
2013-10-28 14:15:00,80.4,66.2,30.16,North,0,0.0,0.0,62,0.00,,,0.00,WUHU21623XXSP,2013-10-28 19:15:00,
2013-10-28 14:20:00,80.8,66.5,30.16,North,0,0.0,0.0,62,0.00,,,0.00,WUHU21623XXSP,2013-10-28 19:20:00,
2013-10-28 14:25:00,80.8,66.5,30.15,North,0,0.0,0.0,62,0.00,,,0.00,WUHU21623XXSP,2013-10-28 19:25:00,
2013-10-28 14:30:00,81.1,66.9,30.15,North,0,0.0,0.0,61,0.00,,,0.00,WUHU21623XXSP,2013-10-28 19:30:00,
2013-10-28 14:35:00,81.1,66.4,30.15,North,0,0.0,0.0,61,0.00,,,0.00,WUHU21623XXSP,2013-10-28 19:35:00,
2013-10-28 14:40:00,81.3,66.1,30.16,North,0,0.0,0.0,60,0.00,,,0.00,WUHU21623XXSP,2013-10-28 19:40:00,
2013-10-28 14:45:00,81.3,66.1,30.16,North,0,0.0,0.0,60,0.00,,,0.00,WUHU21623XXSP,2013-10-28 19:45:00,
2013-10-28 14:50:00,81.1,66.0,30.15,North,0,0.0,0.0,60,0.00,,,0.00,WUHU21623XXSP,2013-10-28 19:50:00,
2013-10-28 14:55:00,81.0,65.8,30.15,North,0,0.0,0.0,60,0.00,,,0.00,WUHU21623XXSP,2013-10-28 19:55:00,
2013-10-28 15:00:00,80.8,65.6,30.15,North,0,0.0,0.0,60,0.00,,,0.00,WUHU21623XXSP,2013-10-28 20:00:00,
2013-10-28 15:05:00,81.0,65.3,30.15,North,0,0.0,0.0,59,0.00,,,0.00,WUHU21623XXSP,2013-10-28 20:05:00,
2013-10-28 15:10:00,80.8,65.6,30.15,North,0,0.0,0.0,60,0.00,,,0.00,WUHU21623XXSP,2013-10-28 20:10:00,
2013-10-28 15:15:00,81.0,65.8,30.16,North,0,0.0,0.0,60,0.00,,,0.00,WUHU21623XXSP,2013-10-28 20:15:00,
2013-10-28 15:20:00,81.1,66.0,30.16,North,0,0.0,0.0,60,0.00,,,0.00,WUHU21623XXSP,2013-10-28 20:20:00,
2013-10-28 15:25:00,81.7,66.5,30.16,North,0,0.0,0.0,60,0.00,,,0.00,WUHU21623XXSP,2013-10-28 20:25:00,
2013-10-28 15:30:00,81.7,65.9,30.16,North,0,0.0,0.0,59,0.00,,,0.00,WUHU21623XXSP,2013-10-28 20:30:00,
2013-10-28 15:35:00,81.9,66.1,30.16,North,0,0.0,0.0,59,0.00,,,0.00,WUHU21623XXSP,2013-10-28 20:35:00,
2013-10-28 15:40:00,82.0,65.7,30.16,North,0,0.0,0.0,58,0.00,,,0.00,WUHU21623XXSP,2013-10-28 20:40:00,
2013-10-28 15:45:00,82.0,66.3,30.16,North,0,0.0,0.0,59,0.00,,,0.00,WUHU21623XXSP,2013-10-28 20:45:00,
2013-10-28 15:50:00,81.7,65.2,30.16,North,0,0.0,0.0,57,0.00,,,0.00,WUHU21623XXSP,2013-10-28 20:50:00,
2013-10-28 15:55:00,81.5,65.2,30.16,North,0,0.0,0.0,58,0.00,,,0.00,WUHU21623XXSP,2013-10-28 20:55:00,
2013-10-28 16:00:00,81.5,65.2,30.16,North,0,0.0,0.0,58,0.00,,,0.00,WUHU21623XXSP,2013-10-28 21:00:00,
2013-10-28 16:05:00,81.5,65.2,30.16,North,0,0.0,0.0,58,0.00,,,0.00,WUHU21623XXSP,2013-10-28 21:05:00,
2013-10-28 16:10:00,81.3,65.8,30.16,North,0,0.0,0.0,58,0.00,,,0.00,WUHU21623XXSP,2013-10-28 21:10:00,
2013-10-28 16:15:00,81.1,65.1,30.16,North,0,0.0,0.0,59,0.00,,,0.00,WUHU21623XXSP,2013-10-28 21:15:00,
2013-10-28 16:20:00,81.0,65.3,30.16,North,0,0.0,0.0,59,0.00,,,0.00,WUHU21623XXSP,2013-10-28 21:20:00,
2013-10-28 16:25:00,80.8,64.6,30.16,North,0,0.0,0.0,58,0.00,,,0.00,WUHU21623XXSP,2013-10-28 21:25:00,
2013-10-28 16:30:00,80.4,64.8,30.15,North,0,0.0,0.0,59,0.00,,,0.00,WUHU21623XXSP,2013-10-28 21:30:00,
2013-10-28 16:35:00,80.2,64.6,30.16,North,0,0.0,0.0,59,0.00,,,0.00,WUHU21623XXSP,2013-10-28 21:35:00,
2013-10-28 16:40:00,79.9,64.3,30.16,North,0,0.0,0.0,59,0.00,,,0.00,WUHU21623XXSP,2013-10-28 21:40:00,
2013-10-28 16:45:00,79.9,64.3,30.16,North,0,0.0,0.0,59,0.00,,,0.00,WUHU21623XXSP,2013-10-28 21:45:00,
2013-10-28 16:50:00,79.9,64.3,30.16,North,0,0.0,0.0,59,0.00,,,0.00,WUHU21623XXSP,2013-10-28 21:50:00,
2013-10-28 16:55:00,79.5,64.0,30.16,North,0,0.0,0.0,59,0.00,,,0.00,WUHU21623XXSP,2013-10-28 21:55:00,
2013-10-28 17:00:00,79.3,64.3,30.16,North,0,0.0,0.0,60,0.00,,,0.00,WUHU21623XXSP,2013-10-28 22:00:00,
2013-10-28 17:05:00,79.2,64.2,30.16,North,0,0.0,0.0,60,0.00,,,0.00,WUHU21623XXSP,2013-10-28 22:05:00,
2013-10-28 17:10:00,78.6,64.1,30.16,North,0,0.0,0.0,61,0.00,,,0.00,WUHU21623XXSP,2013-10-28 22:10:00,
2013-10-28 17:15:00,78.4,64.4,30.16,North,0,0.0,0.0,62,0.00,,,0.00,WUHU21623XXSP,2013-10-28 22:15:00,
2013-10-28 17:20:00,77.9,64.0,30.16,North,0,0.0,0.0,62,0.00,,,0.00,WUHU21623XXSP,2013-10-28 22:20:00,
2013-10-28 17:25:00,77.4,63.3,30.16,North,0,0.0,0.0,62,0.00,,,0.00,WUHU21623XXSP,2013-10-28 22:25:00,
2013-10-28 17:30:00,76.8,63.2,30.16,North,0,0.0,0.0,63,0.00,,,0.00,WUHU21623XXSP,2013-10-28 22:30:00,
2013-10-28 17:35:00,76.5,62.9,30.16,North,0,0.0,0.0,63,0.00,,,0.00,WUHU21623XXSP,2013-10-28 22:35:00,
2013-10-28 17:40:00,75.9,62.8,30.16,North,0,0.0,0.0,64,0.00,,,0.00,WUHU21623XXSP,2013-10-28 22:40:00,
2013-10-28 17:45:00,75.4,62.8,30.16,North,0,0.0,0.0,65,0.00,,,0.00,WUHU21623XXSP,2013-10-28 22:45:00,
2013-10-28 17:50:00,75.0,62.4,30.16,North,0,0.0,0.0,65,0.00,,,0.00,WUHU21623XXSP,2013-10-28 22:50:00,
2013-10-28 17:55:00,74.5,62.3,30.16,North,0,0.0,0.0,66,0.00,,,0.00,WUHU21623XXSP,2013-10-28 22:55:00,
2013-10-28 18:00:00,73.9,61.8,30.16,North,0,0.0,0.0,66,0.00,,,0.00,WUHU21623XXSP,2013-10-28 23:00:00,
2013-10-28 18:05:00,73.2,61.6,30.16,North,0,0.0,0.0,67,0.00,,,0.00,WUHU21623XXSP,2013-10-28 23:05:00,
2013-10-28 18:10:00,73.0,61.4,30.16,North,0,0.0,0.0,67,0.00,,,0.00,WUHU21623XXSP,2013-10-28 23:10:00,
2013-10-28 18:15:00,72.5,61.4,30.17,North,0,0.0,0.0,68,0.00,,,0.00,WUHU21623XXSP,2013-10-28 23:15:00,
2013-10-28 18:20:00,72.0,60.8,30.17,North,0,0.0,0.0,68,0.00,,,0.00,WUHU21623XXSP,2013-10-28 23:20:00,
2013-10-28 18:25:00,71.4,60.7,30.17,North,0,0.0,0.0,69,0.00,,,0.00,WUHU21623XXSP,2013-10-28 23:25:00,
2013-10-28 18:30:00,71.2,60.5,30.17,North,0,0.0,0.0,69,0.00,,,0.00,WUHU21623XXSP,2013-10-28 23:30:00,
2013-10-28 18:35:00,70.5,60.3,30.17,North,0,0.0,0.0,70,0.00,,,0.00,WUHU21623XXSP,2013-10-28 23:35:00,
2013-10-28 18:40:00,70.2,59.9,30.17,North,0,0.0,0.0,70,0.00,,,0.00,WUHU21623XXSP,2013-10-28 23:40:00,
2013-10-28 18:45:00,70.0,60.1,30.17,North,0,0.0,0.0,71,0.00,,,0.00,WUHU21623XXSP,2013-10-28 23:45:00,
2013-10-28 18:50:00,69.4,59.6,30.17,North,0,0.0,0.0,71,0.00,,,0.00,WUHU21623XXSP,2013-10-28 23:50:00,
2013-10-28 18:55:00,69.1,59.3,30.18,North,0,0.0,0.0,72,0.00,,,0.00,WUHU21623XXSP,2013-10-28 23:55:00,
2013-10-28 19:00:00,68.7,59.3,30.18,North,0,0.0,0.0,72,0.00,,,0.00,WUHU21623XXSP,2013-10-29 00:00:00,
2013-10-28 19:05:00,68.4,59.0,30.17,North,0,0.0,0.0,72,0.00,,,0.00,WUHU21623XXSP,2013-10-29 00:05:00,
2013-10-28 19:10:00,67.8,58.9,30.18,North,0,0.0,0.0,73,0.00,,,0.00,WUHU21623XXSP,2013-10-29 00:10:00,
2013-10-28 19:15:00,67.6,58.7,30.18,North,0,0.0,0.0,73,0.00,,,0.00,WUHU21623XXSP,2013-10-29 00:15:00,
2013-10-28 19:20:00,67.1,58.5,30.18,North,0,0.0,0.0,74,0.00,,,0.00,WUHU21623XXSP,2013-10-29 00:20:00,
2013-10-28 19:25:00,66.9,58.4,30.18,North,0,0.0,0.0,75,0.00,,,0.00,WUHU21623XXSP,2013-10-29 00:25:00,
2013-10-28 19:30:00,66.7,58.5,30.18,North,0,0.0,0.0,75,0.00,,,0.00,WUHU21623XXSP,2013-10-29 00:30:00,
2013-10-28 19:35:00,66.4,58.2,30.18,North,0,0.0,0.0,75,0.00,,,0.00,WUHU21623XXSP,2013-10-29 00:35:00,
2013-10-28 19:40:00,66.0,58.2,30.18,North,0,0.0,0.0,76,0.00,,,0.00,WUHU21623XXSP,2013-10-29 00:40:00,
2013-10-28 19:45:00,65.8,58.0,30.18,North,0,0.0,0.0,76,0.00,,,0.00,WUHU21623XXSP,2013-10-29 00:45:00,
2013-10-28 19:50:00,65.5,58.1,30.18,North,0,0.0,0.0,77,0.00,,,0.00,WUHU21623XXSP,2013-10-29 00:50:00,
2013-10-28 19:55:00,65.3,57.9,30.18,North,0,0.0,0.0,77,0.00,,,0.00,WUHU21623XXSP,2013-10-29 00:55:00,
2013-10-28 20:00:00,65.1,57.7,30.19,North,0,0.0,0.0,77,0.00,,,0.00,WUHU21623XXSP,2013-10-29 01:00:00,
2013-10-28 20:05:00,64.8,57.7,30.18,North,0,0.0,0.0,78,0.00,,,0.00,WUHU21623XXSP,2013-10-29 01:05:00,
2013-10-28 20:10:00,64.6,57.5,30.19,North,0,0.0,0.0,78,0.00,,,0.00,WUHU21623XXSP,2013-10-29 01:10:00,
2013-10-28 20:15:00,64.2,57.6,30.19,North,0,0.0,0.0,79,0.00,,,0.00,WUHU21623XXSP,2013-10-29 01:15:00,
2013-10-28 20:20:00,64.2,57.6,30.19,North,0,0.0,0.0,79,0.00,,,0.00,WUHU21623XXSP,2013-10-29 01:20:00,
2013-10-28 20:25:00,64.0,57.4,30.19,North,0,0.0,0.0,79,0.00,,,0.00,WUHU21623XXSP,2013-10-29 01:25:00,
2013-10-28 20:30:00,63.7,57.4,30.19,North,0,0.0,0.0,80,0.00,,,0.00,WUHU21623XXSP,2013-10-29 01:30:00,
2013-10-28 20:35:00,63.5,57.2,30.19,North,0,0.0,0.0,80,0.00,,,0.00,WUHU21623XXSP,2013-10-29 01:35:00,
2013-10-28 20:40:00,63.3,57.2,30.19,North,0,0.0,0.0,80,0.00,,,0.00,WUHU21623XXSP,2013-10-29 01:40:00,
2013-10-28 20:45:00,63.3,57.0,30.20,North,0,0.0,0.0,80,0.00,,,0.00,WUHU21623XXSP,2013-10-29 01:45:00,
2013-10-28 20:50:00,63.1,57.2,30.20,North,0,0.0,0.0,81,0.00,,,0.00,WUHU21623XXSP,2013-10-29 01:50:00,
2013-10-28 20:55:00,63.0,57.0,30.20,North,0,0.0,0.0,81,0.00,,,0.00,WUHU21623XXSP,2013-10-29 01:55:00,
2013-10-28 21:00:00,62.8,56.8,30.20,North,0,0.0,0.0,81,0.00,,,0.00,WUHU21623XXSP,2013-10-29 02:00:00,
2013-10-28 21:05:00,62.6,57.0,30.20,North,0,0.0,0.0,82,0.00,,,0.00,WUHU21623XXSP,2013-10-29 02:05:00,
2013-10-28 21:10:00,62.4,56.8,30.21,North,0,0.0,0.0,82,0.00,,,0.00,WUHU21623XXSP,2013-10-29 02:10:00,
2013-10-28 21:15:00,62.4,56.8,30.21,North,0,0.0,0.0,82,0.00,,,0.00,WUHU21623XXSP,2013-10-29 02:15:00,
2013-10-28 21:20:00,62.2,56.6,30.21,North,0,0.0,0.0,82,0.00,,,0.00,WUHU21623XXSP,2013-10-29 02:20:00,
2013-10-28 21:25:00,62.2,56.6,30.21,North,0,0.0,0.0,82,0.00,,,0.00,WUHU21623XXSP,2013-10-29 02:25:00,
2013-10-28 21:30:00,61.9,56.3,30.21,North,0,0.0,0.0,82,0.00,,,0.00,WUHU21623XXSP,2013-10-29 02:30:00,
2013-10-28 21:35:00,61.9,56.3,30.22,North,0,0.0,0.0,82,0.00,,,0.00,WUHU21623XXSP,2013-10-29 02:35:00,
2013-10-28 21:40:00,61.5,56.0,30.22,North,0,0.0,0.0,82,0.00,,,0.00,WUHU21623XXSP,2013-10-29 02:40:00,
2013-10-28 21:45:00,61.5,56.0,30.22,North,0,0.0,0.0,82,0.00,,,0.00,WUHU21623XXSP,2013-10-29 02:45:00,
2013-10-28 21:50:00,61.3,56.1,30.22,North,0,0.0,0.0,83,0.00,,,0.00,WUHU21623XXSP,2013-10-29 02:50:00,
2013-10-28 21:55:00,61.2,56.0,30.22,North,0,0.0,0.0,83,0.00,,,0.00,WUHU21623XXSP,2013-10-29 02:55:00,
2013-10-28 22:00:00,61.2,56.0,30.22,North,0,0.0,0.0,83,0.00,,,0.00,WUHU21623XXSP,2013-10-29 03:00:00,
2013-10-28 22:05:00,61.0,55.8,30.22,North,0,0.0,0.0,83,0.00,,,0.00,WUHU21623XXSP,2013-10-29 03:05:00,
2013-10-28 22:10:00,60.8,56.0,30.22,North,0,0.0,0.0,84,0.00,,,0.00,WUHU21623XXSP,2013-10-29 03:10:00,
2013-10-28 22:15:00,60.6,55.8,30.22,North,0,0.0,0.0,84,0.00,,,0.00,WUHU21623XXSP,2013-10-29 03:15:00,
2013-10-28 22:20:00,60.6,55.8,30.22,North,0,0.0,0.0,84,0.00,,,0.00,WUHU21623XXSP,2013-10-29 03:20:00,
2013-10-28 22:25:00,60.4,55.6,30.21,North,0,0.0,0.0,84,0.00,,,0.00,WUHU21623XXSP,2013-10-29 03:25:00,
2013-10-28 22:30:00,60.4,55.6,30.22,North,0,0.0,0.0,84,0.00,,,0.00,WUHU21623XXSP,2013-10-29 03:30:00,
2013-10-28 22:35:00,60.3,55.4,30.21,North,0,0.0,0.0,84,0.00,,,0.00,WUHU21623XXSP,2013-10-29 03:35:00,
2013-10-28 22:40:00,60.1,55.3,30.21,North,0,0.0,0.0,84,0.00,,,0.00,WUHU21623XXSP,2013-10-29 03:40:00,
2013-10-28 22:45:00,60.1,55.3,30.22,North,0,0.0,0.0,84,0.00,,,0.00,WUHU21623XXSP,2013-10-29 03:45:00,
2013-10-28 22:50:00,59.9,55.4,30.21,North,0,0.0,0.0,85,0.00,,,0.00,WUHU21623XXSP,2013-10-29 03:50:00,
2013-10-28 22:55:00,59.7,55.2,30.21,North,0,0.0,0.0,85,0.00,,,0.00,WUHU21623XXSP,2013-10-29 03:55:00,
2013-10-28 23:00:00,59.7,55.2,30.21,North,0,0.0,0.0,85,0.00,,,0.00,WUHU21623XXSP,2013-10-29 04:00:00,
2013-10-28 23:01:00,59.5,55.2,30.21,North,0,0.0,0.0,85,0.00,,,0.00,WUHU21623XXSP,2013-10-29 04:01:00,
2013-10-28 23:06:00,59.5,55.0,30.21,North,0,0.0,0.0,85,0.00,,,0.00,WUHU21623XXSP,2013-10-29 04:06:00,
2013-10-28 23:11:00,59.4,54.9,30.21,North,0,0.0,0.0,85,0.00,,,0.00,WUHU21623XXSP,2013-10-29 04:11:00,
2013-10-28 23:16:00,59.2,54.7,30.21,North,0,0.0,0.0,85,0.00,,,0.00,WUHU21623XXSP,2013-10-29 04:16:00,
2013-10-28 23:21:00,59.0,54.5,30.21,North,0,0.0,0.0,85,0.00,,,0.00,WUHU21623XXSP,2013-10-29 04:21:00,
2013-10-28 23:26:00,58.8,54.3,30.21,North,0,0.0,0.0,85,0.00,,,0.00,WUHU21623XXSP,2013-10-29 04:26:00,
2013-10-28 23:31:00,58.8,54.3,30.22,North,0,0.0,0.0,85,0.00,,,0.00,WUHU21623XXSP,2013-10-29 04:31:00,
2013-10-28 23:36:00,58.8,54.6,30.22,North,0,0.0,0.0,86,0.00,,,0.00,WUHU21623XXSP,2013-10-29 04:36:00,
2013-10-28 23:41:00,58.6,54.5,30.22,North,0,0.0,0.0,86,0.00,,,0.00,WUHU21623XXSP,2013-10-29 04:41:00,
2013-10-28 23:46:00,58.5,54.3,30.21,North,0,0.0,0.0,86,0.00,,,0.00,WUHU21623XXSP,2013-10-29 04:46:00,
2013-10-28 23:51:00,58.3,54.1,30.22,North,0,0.0,0.0,86,0.00,,,0.00,WUHU21623XXSP,2013-10-29 04:51:00,
2013-10-28 23:56:00,58.1,54.1,30.21,North,0,0.0,0.0,86,0.00,,,0.00,WUHU21623XXSP,2013-10-29 04:56:00,